createdAt,value
2022-12-09T00:00:02.652Z,84.27
2022-12-09T00:02:30.100Z,84.14
2022-12-09T00:04:58.522Z,84.15
2022-12-09T00:07:25.314Z,84.34
2022-12-09T00:09:52.055Z,83.86
2022-12-09T00:12:18.896Z,84.40
2022-12-09T00:14:45.659Z,84.15
2022-12-09T00:17:12.429Z,84.34
2022-12-09T00:19:39.658Z,84.23
2022-12-09T00:22:07.793Z,83.72
2022-12-09T00:24:34.464Z,83.78
2022-12-09T00:27:01.394Z,84.03
2022-12-09T00:29:28.109Z,83.78
2022-12-09T00:31:54.913Z,84.24
2022-12-09T00:34:21.917Z,83.87
2022-12-09T00:36:48.561Z,83.75
2022-12-09T00:39:16.818Z,83.58
2022-12-09T00:41:43.669Z,83.87
2022-12-09T00:44:11.510Z,84.02
2022-12-09T00:46:38.429Z,83.75
2022-12-09T00:49:05.200Z,84.35
2022-12-09T00:51:32.090Z,84.33
2022-12-09T00:53:58.962Z,84.84
2022-12-09T00:56:29.094Z,85.07
2022-12-09T00:58:56.361Z,85.50
2022-12-09T01:01:23.712Z,85.51
2022-12-09T01:03:50.664Z,85.42
2022-12-09T01:06:20.233Z,85.70
2022-12-09T01:08:47.126Z,86.23
2022-12-09T01:11:17.474Z,86.57
2022-12-09T01:13:45.685Z,86.07
2022-12-09T01:16:16.751Z,86.79
2022-12-09T01:18:44.103Z,86.55
2022-12-09T01:21:11.097Z,86.61
2022-12-09T01:23:37.840Z,87.05
2022-12-09T01:26:05.040Z,86.50
2022-12-09T01:28:31.809Z,86.57
2022-12-09T01:31:06.972Z,87.27
2022-12-09T01:33:34.157Z,86.75
2022-12-09T01:36:03.637Z,87.04
2022-12-09T01:38:30.626Z,86.97
2022-12-09T01:40:57.351Z,87.80
2022-12-09T01:43:24.380Z,87.74
2022-12-09T01:45:51.319Z,87.12
2022-12-09T01:48:23.851Z,87.48
2022-12-09T01:50:53.953Z,87.33
2022-12-09T01:53:24.616Z,87.73
2022-12-09T01:55:51.908Z,87.88
2022-12-09T01:58:19.279Z,87.56
2022-12-09T02:00:47.508Z,87.64
2022-12-09T02:03:14.732Z,87.71
2022-12-09T02:05:44.854Z,87.36
2022-12-09T02:08:13.076Z,87.38
2022-12-09T02:10:49.626Z,87.63
2022-12-09T02:13:25.313Z,87.76
2022-12-09T02:15:54.460Z,87.61
2022-12-09T02:18:26.891Z,87.59
2022-12-09T02:21:01.235Z,87.87
2022-12-09T02:23:36.763Z,88.03
2022-12-09T02:26:16.556Z,87.30
2022-12-09T02:29:16.068Z,87.43
2022-12-09T02:31:54.365Z,87.56
2022-12-09T02:34:26.915Z,87.12
2022-12-09T02:36:59.672Z,86.95
2022-12-09T02:39:31.295Z,86.57
2022-12-09T02:42:02.699Z,86.83
2022-12-09T02:44:30.805Z,86.59
2022-12-09T02:46:59.157Z,86.73
2022-12-09T02:49:30.843Z,86.53
2022-12-09T02:51:58.824Z,86.50
2022-12-09T02:54:30.657Z,85.95
2022-12-09T02:57:02.764Z,86.59
2022-12-09T02:59:29.635Z,86.54
2022-12-09T03:02:15.502Z,86.36
2022-12-09T03:04:51.415Z,85.73
2022-12-09T03:07:36.697Z,85.85
2022-12-09T03:10:11.545Z,86.20
2022-12-09T03:12:41.964Z,85.64
2022-12-09T03:15:12.792Z,85.89
2022-12-09T03:17:43.472Z,85.85
2022-12-09T03:20:16.134Z,85.73
2022-12-09T03:22:45.954Z,85.03
2022-12-09T03:25:18.875Z,85.18
2022-12-09T03:27:51.497Z,84.46
2022-12-09T03:30:18.633Z,84.30
2022-12-09T03:32:47.130Z,84.30
2022-12-09T03:35:22.138Z,84.08
2022-12-09T03:37:50.814Z,84.40
2022-12-09T03:40:23.089Z,84.45
2022-12-09T03:42:54.912Z,84.49
2022-12-09T03:45:22.086Z,84.65
2022-12-09T03:47:49.408Z,84.45
2022-12-09T03:50:18.227Z,84.08
2022-12-09T03:52:49.047Z,84.62
2022-12-09T03:55:23.294Z,84.52
2022-12-09T03:57:55.140Z,85.22
2022-12-09T04:00:22.041Z,84.99
2022-12-09T04:02:49.111Z,84.79
2022-12-09T04:05:17.772Z,85.06
2022-12-09T04:07:44.883Z,85.26
2022-12-09T04:10:12.395Z,85.18
2022-12-09T04:12:39.275Z,86.25
2022-12-09T04:15:07.459Z,85.88
2022-12-09T04:17:34.245Z,86.48
2022-12-09T04:20:01.590Z,86.25
2022-12-09T04:22:30.658Z,86.30
2022-12-09T04:24:57.566Z,86.22
2022-12-09T04:27:24.586Z,86.34
2022-12-09T04:29:51.953Z,87.22
2022-12-09T04:32:18.746Z,87.18
2022-12-09T04:34:45.527Z,86.75
2022-12-09T04:37:12.199Z,86.97
2022-12-09T04:39:40.499Z,87.19
2022-12-09T04:42:08.085Z,87.44
2022-12-09T04:44:35.068Z,87.64
2022-12-09T04:47:02.011Z,87.10
2022-12-09T04:49:29.518Z,86.86
2022-12-09T04:51:56.400Z,86.74
2022-12-09T04:54:23.534Z,86.16
2022-12-09T04:56:51.993Z,86.17
2022-12-09T04:59:18.768Z,85.52
2022-12-09T05:01:45.831Z,85.48
2022-12-09T05:04:12.992Z,84.70
2022-12-09T05:06:39.739Z,85.13
2022-12-09T05:09:11.460Z,85.04
2022-12-09T05:11:38.766Z,85.09
2022-12-09T05:14:07.199Z,85.55
2022-12-09T05:16:34.347Z,85.68
2022-12-09T05:19:01.588Z,85.95
2022-12-09T05:21:28.709Z,85.87
2022-12-09T05:23:55.815Z,86.20
2022-12-09T05:26:23.554Z,86.17
2022-12-09T05:28:51.177Z,86.65
2022-12-09T05:31:22.406Z,86.62
2022-12-09T05:33:50.760Z,86.90
2022-12-09T05:36:20.912Z,87.47
2022-12-09T05:38:48.959Z,87.11
2022-12-09T05:41:16.024Z,87.53
2022-12-09T05:43:42.947Z,87.29
2022-12-09T05:46:10.901Z,87.50
2022-12-09T05:48:39.252Z,87.55
2022-12-09T05:51:09.300Z,87.74
2022-12-09T05:53:36.191Z,87.60
2022-12-09T05:56:04.090Z,88.56
2022-12-09T05:58:30.926Z,88.16
2022-12-09T06:01:04.241Z,88.03
2022-12-09T06:03:31.414Z,88.52
2022-12-09T06:05:59.821Z,88.29
2022-12-09T06:08:26.871Z,88.82
2022-12-09T06:10:53.813Z,88.54
2022-12-09T06:13:20.603Z,88.61
2022-12-09T06:15:47.727Z,88.86
2022-12-09T06:18:14.548Z,89.11
2022-12-09T06:20:41.729Z,89.12
2022-12-09T06:23:10.234Z,88.59
2022-12-09T06:25:37.093Z,88.97
2022-12-09T06:28:04.745Z,89.42
2022-12-09T06:30:31.829Z,89.75
2022-12-09T06:32:59.134Z,89.83
2022-12-09T06:35:26.103Z,90.07
2022-12-09T06:37:52.974Z,89.71
2022-12-09T06:40:21.976Z,90.20
2022-12-09T06:42:48.785Z,90.37
2022-12-09T06:45:15.785Z,90.57
2022-12-09T06:47:42.861Z,90.18
2022-12-09T06:50:10.801Z,90.29
2022-12-09T06:52:38.289Z,90.33
2022-12-09T06:55:06.641Z,90.69
2022-12-09T06:57:35.734Z,90.24
2022-12-09T07:00:04.269Z,90.24
2022-12-09T07:02:35.770Z,90.24
2022-12-09T07:05:04.478Z,90.44
2022-12-09T07:07:31.700Z,90.07
2022-12-09T07:09:58.881Z,89.89
2022-12-09T07:12:26.048Z,90.39
2022-12-09T07:14:54.265Z,90.04
2022-12-09T07:17:21.197Z,90.30
2022-12-09T07:19:48.539Z,89.94
2022-12-09T07:22:16.630Z,90.33
2022-12-09T07:24:44.041Z,90.51
2022-12-09T07:27:19.224Z,90.78
2022-12-09T07:29:47.285Z,90.38
2022-12-09T07:32:15.640Z,90.44
2022-12-09T07:34:43.003Z,90.62
2022-12-09T07:37:10.023Z,90.63
2022-12-09T07:39:37.001Z,90.44
2022-12-09T07:42:04.644Z,90.14
2022-12-09T07:44:31.740Z,90.34
2022-12-09T07:46:58.667Z,89.82
2022-12-09T07:49:27.314Z,90.34
2022-12-09T07:51:54.240Z,90.35
2022-12-09T07:54:21.348Z,89.83
2022-12-09T07:56:48.743Z,90.03
2022-12-09T07:59:16.523Z,89.99
2022-12-09T08:01:44.474Z,90.37
2022-12-09T08:04:11.796Z,90.27
2022-12-09T08:06:40.663Z,90.76
2022-12-09T08:09:11.583Z,90.19
2022-12-09T08:11:39.592Z,90.39
2022-12-09T08:14:12.557Z,90.12
2022-12-09T08:16:41.150Z,90.35
2022-12-09T08:19:09.188Z,90.06
2022-12-09T08:21:36.158Z,90.11
2022-12-09T08:24:06.381Z,90.24
2022-12-09T08:26:35.103Z,90.13
2022-12-09T08:29:02.151Z,90.05
2022-12-09T08:31:30.338Z,90.20
2022-12-09T08:33:58.617Z,90.04
2022-12-09T08:36:27.404Z,90.40
2022-12-09T08:38:55.431Z,89.89
2022-12-09T08:41:25.685Z,90.19
2022-12-09T08:43:52.508Z,89.71
2022-12-09T08:46:19.721Z,89.81
2022-12-09T08:48:46.620Z,90.14
2022-12-09T08:51:13.902Z,90.61
2022-12-09T08:53:40.878Z,90.01
2022-12-09T08:56:09.658Z,89.99
2022-12-09T08:58:38.293Z,90.14
2022-12-09T09:01:05.663Z,90.43
2022-12-09T09:03:33.329Z,90.20
2022-12-09T09:06:09.501Z,89.91
2022-12-09T09:08:37.480Z,89.98
2022-12-09T09:11:08.402Z,89.84
2022-12-09T09:13:35.383Z,89.78
2022-12-09T09:16:04.153Z,89.90
2022-12-09T09:18:31.769Z,89.82
2022-12-09T09:20:58.857Z,89.66
2022-12-09T09:23:26.221Z,89.61
2022-12-09T09:25:52.939Z,89.51
2022-12-09T09:28:19.996Z,89.79
2022-12-09T09:30:47.277Z,89.96
2022-12-09T09:33:15.567Z,89.93
2022-12-09T09:35:44.295Z,89.77
2022-12-09T09:38:11.384Z,89.38
2022-12-09T09:40:41.408Z,89.30
2022-12-09T09:43:15.065Z,89.70
2022-12-09T09:45:42.652Z,89.81
2022-12-09T09:48:15.671Z,89.77
2022-12-09T09:50:51.823Z,90.00
2022-12-09T09:53:24.046Z,89.10
2022-12-09T09:55:56.385Z,89.69
2022-12-09T09:58:27.936Z,89.45
2022-12-09T10:01:02.531Z,89.87
2022-12-09T10:03:39.585Z,89.73
2022-12-09T10:06:18.706Z,90.29
2022-12-09T10:08:55.059Z,90.11
2022-12-09T10:11:29.530Z,90.42
2022-12-09T10:14:05.918Z,89.96
2022-12-09T10:16:42.775Z,90.20
2022-12-09T10:19:17.974Z,89.63
2022-12-09T10:21:48.896Z,90.06
2022-12-09T10:24:21.146Z,90.32
2022-12-09T10:26:58.568Z,89.95
2022-12-09T10:29:40.249Z,89.82
2022-12-09T10:32:14.758Z,90.35
2022-12-09T10:34:41.741Z,90.25
2022-12-09T10:37:24.977Z,90.31
2022-12-09T10:39:56.947Z,90.30
2022-12-09T10:42:31.560Z,89.63
2022-12-09T10:45:05.474Z,89.45
2022-12-09T10:47:32.593Z,88.64
2022-12-09T10:50:00.370Z,89.08
2022-12-09T10:52:43.152Z,88.79
2022-12-09T10:55:22.284Z,88.47
2022-12-09T10:57:49.256Z,88.42
2022-12-09T11:00:22.859Z,88.21
2022-12-09T11:02:52.234Z,87.65
2022-12-09T11:05:25.531Z,88.36
2022-12-09T11:07:55.587Z,88.61
2022-12-09T11:10:25.383Z,88.62
2022-12-09T11:12:54.016Z,88.82
2022-12-09T11:15:32.385Z,88.24
2022-12-09T11:18:02.533Z,88.33
2022-12-09T11:20:31.703Z,87.61
2022-12-09T11:23:03.396Z,87.60
2022-12-09T11:25:32.501Z,87.69
2022-12-09T11:28:01.358Z,87.57
2022-12-09T11:30:31.800Z,87.87
2022-12-09T11:33:05.366Z,87.67
2022-12-09T11:35:34.091Z,87.49
2022-12-09T11:38:14.149Z,87.06
2022-12-09T11:40:41.224Z,86.09
2022-12-09T11:43:07.951Z,86.15
2022-12-09T11:45:38.461Z,86.08
2022-12-09T11:48:27.669Z,86.10
2022-12-09T11:50:55.808Z,86.63
2022-12-09T11:53:27.878Z,86.04
2022-12-09T11:56:00.741Z,86.06
2022-12-09T11:58:30.460Z,86.18
2022-12-09T12:01:02.942Z,86.85
2022-12-09T12:03:36.863Z,86.47
2022-12-09T12:06:08.639Z,86.31
2022-12-09T12:08:42.217Z,86.05
2022-12-09T12:11:15.312Z,86.16
2022-12-09T12:13:45.987Z,86.14
2022-12-09T12:16:20.778Z,86.07
2022-12-09T12:18:58.440Z,86.04
2022-12-09T12:21:37.392Z,85.96
2022-12-09T12:24:24.943Z,85.90
2022-12-09T12:27:02.798Z,85.33
2022-12-09T12:29:40.144Z,85.57
2022-12-09T12:32:21.714Z,85.80
2022-12-09T12:35:00.332Z,85.87
2022-12-09T12:37:39.591Z,85.46
2022-12-09T12:40:15.040Z,86.01
2022-12-09T12:42:56.447Z,86.15
2022-12-09T12:45:29.804Z,86.25
2022-12-09T12:48:01.672Z,86.16
2022-12-09T12:50:48.717Z,85.59
2022-12-09T12:53:29.026Z,85.55
2022-12-09T12:56:02.641Z,85.42
2022-12-09T12:58:43.380Z,85.60
2022-12-09T13:01:18.104Z,85.47
2022-12-09T13:04:01.930Z,85.82
2022-12-09T13:06:37.623Z,86.43
2022-12-09T13:09:11.012Z,85.85
2022-12-09T13:11:42.481Z,86.15
2022-12-09T13:14:13.819Z,86.15
2022-12-09T13:16:42.015Z,85.90
2022-12-09T13:19:15.116Z,85.93
2022-12-09T13:21:44.290Z,85.91
2022-12-09T13:24:22.133Z,86.18
2022-12-09T13:26:58.668Z,86.63
2022-12-09T13:29:34.979Z,86.62
2022-12-09T13:32:12.326Z,86.97
2022-12-09T13:34:42.077Z,87.01
2022-12-09T13:37:33.544Z,86.47
2022-12-09T13:40:01.737Z,86.76
2022-12-09T13:42:46.675Z,86.55
2022-12-09T13:45:16.081Z,86.65
2022-12-09T13:47:43.244Z,86.79
2022-12-09T13:50:24.785Z,86.73
2022-12-09T13:52:53.387Z,87.01
2022-12-09T13:55:28.242Z,86.37
2022-12-09T13:58:11.241Z,86.96
2022-12-09T14:00:42.322Z,87.08
2022-12-09T14:03:25.945Z,86.75
2022-12-09T14:05:55.877Z,86.60
2022-12-09T14:08:26.648Z,86.37
2022-12-09T14:10:53.657Z,86.26
2022-12-09T14:13:30.312Z,85.50
2022-12-09T14:16:15.574Z,86.11
2022-12-09T14:18:43.100Z,86.30
2022-12-09T14:21:36.822Z,85.91
2022-12-09T14:24:32.079Z,85.25
2022-12-09T14:27:10.726Z,85.69
2022-12-09T14:29:54.066Z,85.89
2022-12-09T14:32:26.159Z,86.29
2022-12-09T14:35:03.868Z,86.29
2022-12-09T14:37:58.660Z,86.28
2022-12-09T14:40:35.741Z,86.37
2022-12-09T14:43:14.786Z,86.19
2022-12-09T14:45:50.249Z,86.36
2022-12-09T14:48:21.399Z,86.19
2022-12-09T14:50:48.394Z,86.29
2022-12-09T14:53:23.286Z,86.19
2022-12-09T14:55:51.262Z,86.08
2022-12-09T14:58:22.440Z,86.22
2022-12-09T15:00:59.531Z,86.38
2022-12-09T15:03:39.481Z,86.17
2022-12-09T15:06:16.678Z,86.09
2022-12-09T15:08:43.415Z,85.84
2022-12-09T15:11:13.845Z,86.31
2022-12-09T15:13:42.594Z,86.65
2022-12-09T15:16:14.475Z,86.37
2022-12-09T15:18:43.455Z,86.20
2022-12-09T15:21:11.925Z,85.80
2022-12-09T15:23:41.140Z,85.79
2022-12-09T15:26:18.401Z,85.51
2022-12-09T15:28:48.561Z,85.95
2022-12-09T15:31:19.436Z,86.25
2022-12-09T15:33:48.019Z,85.68
2022-12-09T15:36:18.627Z,85.75
2022-12-09T15:38:48.017Z,85.88
2022-12-09T15:41:17.115Z,85.52
2022-12-09T15:43:44.306Z,85.27
2022-12-09T15:46:12.348Z,85.65
2022-12-09T15:48:46.870Z,85.58
2022-12-09T15:51:18.760Z,85.91
2022-12-09T15:53:53.600Z,86.08
2022-12-09T15:56:26.878Z,86.28
2022-12-09T15:58:57.468Z,86.23
2022-12-09T16:01:28.083Z,86.13
2022-12-09T16:03:59.125Z,86.32
2022-12-09T16:06:28.536Z,86.20
2022-12-09T16:08:55.396Z,86.54
2022-12-09T16:11:41.014Z,86.80
2022-12-09T16:14:08.809Z,86.16
2022-12-09T16:16:46.642Z,86.28
2022-12-09T16:19:33.562Z,86.55
2022-12-09T16:22:03.097Z,86.55
2022-12-09T16:24:50.730Z,86.74
2022-12-09T16:27:20.375Z,85.98
2022-12-09T16:29:50.559Z,86.61
2022-12-09T16:32:23.941Z,86.57
2022-12-09T16:34:52.848Z,86.21
2022-12-09T16:37:35.982Z,86.69
2022-12-09T16:40:39.198Z,86.92
2022-12-09T16:43:24.758Z,86.09
2022-12-09T16:45:53.577Z,86.33
2022-12-09T16:48:22.074Z,86.54
2022-12-09T16:50:52.933Z,86.59
2022-12-09T16:53:22.477Z,86.69
2022-12-09T16:55:50.405Z,85.86
2022-12-09T16:58:17.141Z,86.04
2022-12-09T17:00:44.173Z,86.27
2022-12-09T17:03:17.810Z,86.63
2022-12-09T17:05:47.938Z,86.63
2022-12-09T17:08:16.390Z,86.62
2022-12-09T17:10:43.414Z,86.48
2022-12-09T17:13:12.302Z,86.51
2022-12-09T17:15:41.166Z,86.65
2022-12-09T17:18:08.898Z,86.64
2022-12-09T17:20:36.100Z,86.76
2022-12-09T17:23:04.522Z,86.46
2022-12-09T17:25:32.628Z,86.85
2022-12-09T17:28:01.944Z,86.47
2022-12-09T17:30:28.974Z,87.30
2022-12-09T17:32:55.793Z,86.56
2022-12-09T17:35:22.647Z,85.97
2022-12-09T17:37:49.369Z,86.43
2022-12-09T17:40:16.461Z,86.03
2022-12-09T17:42:44.587Z,86.32
2022-12-09T17:45:11.274Z,86.35
2022-12-09T17:47:38.162Z,86.12
2022-12-09T17:50:05.516Z,86.71
2022-12-09T17:52:32.807Z,86.47
2022-12-09T17:54:59.543Z,87.20
2022-12-09T17:57:26.346Z,86.40
2022-12-09T17:59:54.542Z,86.96
2022-12-09T18:02:21.317Z,86.76
2022-12-09T18:04:48.193Z,87.52
2022-12-09T18:07:15.100Z,87.58
2022-12-09T18:09:42.035Z,87.39
2022-12-09T18:12:08.961Z,87.10
2022-12-09T18:14:35.777Z,87.26
2022-12-09T18:17:04.088Z,86.74
2022-12-09T18:19:30.963Z,87.04
2022-12-09T18:21:57.741Z,87.20
2022-12-09T18:24:24.673Z,86.95
2022-12-09T18:26:51.620Z,87.12
2022-12-09T18:29:18.410Z,87.17
2022-12-09T18:31:45.424Z,86.55
2022-12-09T18:34:13.907Z,86.54
2022-12-09T18:36:40.609Z,86.51
2022-12-09T18:39:08.000Z,87.00
2022-12-09T18:41:34.763Z,87.26
2022-12-09T18:44:03.587Z,86.99
2022-12-09T18:46:32.641Z,86.66
2022-12-09T18:49:01.137Z,87.33
2022-12-09T18:51:30.490Z,87.12
2022-12-09T18:53:57.886Z,87.25
2022-12-09T18:56:25.321Z,87.36
2022-12-09T18:59:09.002Z,87.52
2022-12-09T19:01:37.471Z,87.02
2022-12-09T19:04:05.336Z,87.07
2022-12-09T19:06:35.365Z,87.22
2022-12-09T19:09:05.505Z,86.85
2022-12-09T19:11:34.408Z,87.23
2022-12-09T19:16:38.079Z,87.27
2022-12-09T19:19:09.502Z,86.83
2022-12-09T19:21:39.108Z,86.88
2022-12-09T19:24:07.246Z,86.70
2022-12-09T19:26:35.919Z,86.63
2022-12-09T19:29:05.083Z,86.85
2022-12-09T19:31:34.384Z,86.89
2022-12-09T19:34:06.467Z,86.92
2022-12-09T19:36:33.145Z,86.96
2022-12-09T19:39:02.669Z,86.37
2022-12-09T19:41:30.261Z,86.19
2022-12-09T19:44:00.891Z,86.34
2022-12-09T19:46:28.939Z,85.69
2022-12-09T19:48:57.403Z,86.13
2022-12-09T19:51:25.929Z,86.26
2022-12-09T19:53:54.445Z,85.69
2022-12-09T19:56:23.286Z,86.26
2022-12-09T19:58:51.138Z,85.87
2022-12-09T20:07:08.528Z,85.76
2022-12-09T20:09:37.074Z,85.87
2022-12-09T20:12:05.720Z,86.31
2022-12-09T20:14:32.951Z,85.98
2022-12-09T20:17:00.448Z,85.86
2022-12-09T20:19:27.787Z,86.41
2022-12-09T20:21:55.596Z,86.50
2022-12-09T20:24:23.109Z,86.07
2022-12-09T20:26:50.809Z,86.26
2022-12-09T20:29:19.835Z,86.46
2022-12-09T20:31:47.294Z,85.89
2022-12-09T20:34:18.832Z,85.56
2022-12-09T20:36:46.071Z,85.83
2022-12-09T20:39:14.883Z,85.74
2022-12-09T20:41:42.881Z,85.88
2022-12-09T20:44:14.956Z,85.51
2022-12-09T20:46:46.067Z,85.72
2022-12-09T20:49:12.819Z,85.48
2022-12-09T20:51:42.866Z,85.77
2022-12-09T20:54:11.185Z,85.87
2022-12-09T20:56:40.223Z,85.58
2022-12-09T20:59:08.098Z,85.41
2022-12-09T21:01:36.234Z,85.73
2022-12-09T21:04:05.497Z,85.83
2022-12-09T21:06:34.481Z,85.89
2022-12-09T21:09:01.766Z,86.03
2022-12-09T21:11:28.515Z,85.75
2022-12-09T21:13:58.334Z,85.76
2022-12-09T21:16:26.382Z,85.27
2022-12-09T21:18:54.329Z,85.05
2022-12-09T21:21:23.591Z,85.14
2022-12-09T21:23:50.697Z,85.30
2022-12-09T21:26:18.667Z,85.44
2022-12-09T21:28:46.730Z,85.82
2022-12-09T21:31:15.234Z,86.17
2022-12-09T21:33:43.534Z,86.34
2022-12-09T21:36:11.974Z,85.91
2022-12-09T21:38:40.564Z,85.75
2022-12-09T21:41:09.640Z,85.38
2022-12-09T21:43:37.505Z,85.61
2022-12-09T21:46:05.830Z,85.89
2022-12-09T21:48:32.772Z,85.58
2022-12-09T21:51:01.370Z,86.15
2022-12-09T21:53:28.666Z,85.95
2022-12-09T21:56:01.420Z,85.74
2022-12-09T21:58:29.843Z,85.68
2022-12-09T22:00:56.389Z,85.83
2022-12-09T22:03:24.133Z,85.68
2022-12-09T22:05:53.864Z,85.67
2022-12-09T22:08:24.990Z,86.45
2022-12-09T22:10:51.674Z,86.20
2022-12-09T22:13:19.920Z,85.61
2022-12-09T22:15:46.465Z,85.82
2022-12-09T22:18:12.948Z,85.84
2022-12-09T22:21:23.674Z,85.86
2022-12-09T22:23:26.785Z,86.02
2022-12-09T22:25:53.343Z,86.13
2022-12-09T22:28:21.246Z,86.24
2022-12-09T22:30:47.794Z,86.05
2022-12-09T22:33:14.324Z,86.18
2022-12-09T22:35:40.843Z,86.10
2022-12-09T22:38:14.083Z,85.61
2022-12-09T22:40:41.275Z,85.35
2022-12-09T22:43:07.793Z,85.44
2022-12-09T22:45:36.269Z,85.52
2022-12-09T22:48:03.386Z,85.59
2022-12-09T22:50:29.902Z,85.62
2022-12-09T22:52:56.384Z,85.78
2022-12-09T22:55:22.947Z,85.56
2022-12-09T22:57:49.796Z,85.47
2022-12-09T23:00:16.838Z,85.73
2022-12-09T23:02:44.822Z,85.63
2022-12-09T23:05:11.453Z,85.81
2022-12-09T23:07:37.975Z,85.67
2022-12-09T23:10:05.725Z,85.69
2022-12-09T23:12:32.464Z,85.74
2022-12-09T23:14:58.988Z,85.46
2022-12-09T23:17:25.527Z,85.16
2022-12-09T23:19:53.347Z,85.49
2022-12-09T23:22:19.841Z,85.39
2022-12-09T23:24:47.831Z,85.84
2022-12-09T23:27:14.380Z,85.22
2022-12-09T23:29:40.892Z,85.45
2022-12-09T23:32:07.426Z,85.66
2022-12-09T23:34:34.076Z,85.63
2022-12-09T23:37:01.990Z,85.88
2022-12-09T23:39:28.495Z,85.59
2022-12-09T23:41:54.998Z,86.07
2022-12-09T23:44:21.501Z,85.91
2022-12-09T23:46:48.527Z,86.11
2022-12-09T23:49:16.028Z,86.54
2022-12-09T23:51:42.872Z,86.25
2022-12-09T23:54:11.698Z,86.82
2022-12-09T23:56:40.198Z,86.35
2022-12-09T23:59:09.007Z,86.57
